createdAt,value
2022-12-11T00:01:16.918Z,72.41
2022-12-11T00:03:45.086Z,73.51
2022-12-11T00:06:16.577Z,72.79
2022-12-11T00:08:45.247Z,73.16
2022-12-11T00:11:16.196Z,72.76
2022-12-11T00:13:44.713Z,73.77
2022-12-11T00:16:14.611Z,74.56
2022-12-11T00:18:42.776Z,74.85
2022-12-11T00:21:15.382Z,73.34
2022-12-11T00:23:43.727Z,72.70
2022-12-11T00:26:15.898Z,74.01
2022-12-11T00:28:45.822Z,74.10
2022-12-11T00:31:21.175Z,72.95
2022-12-11T00:33:50.192Z,73.08
2022-12-11T00:36:21.424Z,74.10
2022-12-11T00:38:50.707Z,74.01
2022-12-11T00:41:19.764Z,72.83
2022-12-11T00:43:48.316Z,73.38
2022-12-11T00:46:17.786Z,73.78
2022-12-11T00:48:46.195Z,73.06
2022-12-11T00:51:14.311Z,72.75
2022-12-11T00:53:42.423Z,72.70
2022-12-11T00:56:16.602Z,71.93
2022-12-11T00:58:45.397Z,72.46
2022-12-11T01:01:18.410Z,71.49
2022-12-11T01:03:47.274Z,71.68
2022-12-11T01:06:18.524Z,71.19
2022-12-11T01:08:47.359Z,72.09
2022-12-11T01:11:18.293Z,71.59
2022-12-11T01:13:46.403Z,71.61
2022-12-11T01:16:17.375Z,71.83
2022-12-11T01:18:45.667Z,72.34
2022-12-11T01:21:15.265Z,71.31
2022-12-11T01:23:43.423Z,71.78
2022-12-11T01:26:15.039Z,72.54
2022-12-11T01:28:44.069Z,71.69
2022-12-11T01:31:15.945Z,71.46
2022-12-11T01:33:45.632Z,72.22
2022-12-11T01:36:17.665Z,72.68
2022-12-11T01:38:46.696Z,72.11
2022-12-11T01:41:15.904Z,72.84
2022-12-11T01:44:03.151Z,72.71
2022-12-11T01:46:33.768Z,73.30
2022-12-11T01:49:08.323Z,74.11
2022-12-11T01:51:41.848Z,73.26
2022-12-11T01:54:15.192Z,72.65
2022-12-11T01:56:47.079Z,73.28
2022-12-11T01:59:20.226Z,73.81
2022-12-11T02:01:56.010Z,73.86
2022-12-11T02:04:26.979Z,74.30
2022-12-11T02:06:55.658Z,75.10
2022-12-11T02:09:28.064Z,74.97
2022-12-11T02:12:09.026Z,74.68
2022-12-11T02:14:45.892Z,74.80
2022-12-11T02:17:22.950Z,72.30
2022-12-11T02:20:12.077Z,72.59
2022-12-11T02:23:16.083Z,73.43
2022-12-11T02:25:58.437Z,72.56
2022-12-11T02:28:33.207Z,73.31
2022-12-11T02:31:11.590Z,72.40
2022-12-11T02:33:50.065Z,72.46
2022-12-11T02:36:22.327Z,73.68
2022-12-11T02:38:55.881Z,74.59
2022-12-11T02:41:28.255Z,75.24
2022-12-11T02:44:00.075Z,75.41
2022-12-11T02:46:30.566Z,74.73
2022-12-11T02:48:59.557Z,74.58
2022-12-11T02:51:34.507Z,74.44
2022-12-11T02:54:04.611Z,74.87
2022-12-11T02:56:41.545Z,75.27
2022-12-11T02:59:19.527Z,75.78
2022-12-11T03:01:48.369Z,75.93
2022-12-11T03:04:16.827Z,75.99
2022-12-11T03:06:52.236Z,75.43
2022-12-11T03:09:21.545Z,74.83
2022-12-11T03:11:49.673Z,73.75
2022-12-11T03:14:19.799Z,73.60
2022-12-11T03:16:57.895Z,72.75
2022-12-11T03:19:35.877Z,72.02
2022-12-11T03:22:16.678Z,71.46
2022-12-11T03:24:51.998Z,70.11
2022-12-11T03:27:31.295Z,68.70
2022-12-11T03:30:06.019Z,67.54
2022-12-11T03:32:42.144Z,66.24
2022-12-11T03:35:19.307Z,66.61
2022-12-11T03:37:50.726Z,66.17
2022-12-11T03:40:22.099Z,66.37
2022-12-11T03:42:53.790Z,67.10
2022-12-11T03:45:26.948Z,66.59
2022-12-11T03:47:57.637Z,67.73
2022-12-11T03:50:31.337Z,68.52
2022-12-11T03:53:02.826Z,68.89
2022-12-11T03:55:31.965Z,67.89
2022-12-11T03:58:00.184Z,68.53
2022-12-11T04:00:30.698Z,68.94
2022-12-11T04:03:14.720Z,67.22
2022-12-11T04:05:45.661Z,66.32
2022-12-11T04:08:14.468Z,65.64
2022-12-11T04:10:43.237Z,65.83
2022-12-11T04:13:12.478Z,66.27
2022-12-11T04:15:41.426Z,66.82
2022-12-11T04:18:28.810Z,66.72
2022-12-11T04:21:14.877Z,66.79
2022-12-11T04:24:00.658Z,66.29
2022-12-11T04:26:28.953Z,64.79
2022-12-11T04:28:57.081Z,65.25
2022-12-11T04:31:26.570Z,65.12
2022-12-11T04:33:54.711Z,64.69
2022-12-11T04:36:22.849Z,65.66
2022-12-11T04:38:51.074Z,65.06
2022-12-11T04:41:19.635Z,64.90
2022-12-11T04:43:47.770Z,64.92
2022-12-11T04:46:19.498Z,64.53
2022-12-11T04:48:56.744Z,64.87
2022-12-11T04:51:26.298Z,64.90
2022-12-11T04:53:54.630Z,65.25
2022-12-11T04:56:23.094Z,64.81
2022-12-11T04:58:51.296Z,64.06
2022-12-11T05:01:22.598Z,64.55
2022-12-11T05:03:52.143Z,64.46
2022-12-11T05:06:20.256Z,65.63
2022-12-11T05:08:48.398Z,65.22
2022-12-11T05:11:17.729Z,63.93
2022-12-11T05:13:46.546Z,65.21
2022-12-11T05:16:17.536Z,64.86
2022-12-11T05:18:47.339Z,64.87
2022-12-11T05:21:17.316Z,66.07
2022-12-11T05:23:45.605Z,65.62
2022-12-11T05:26:17.699Z,64.46
2022-12-11T05:28:47.152Z,65.04
2022-12-11T05:31:18.507Z,64.40
2022-12-11T05:33:48.449Z,65.16
2022-12-11T05:36:21.408Z,66.21
2022-12-11T05:38:49.953Z,65.96
2022-12-11T05:41:21.640Z,64.72
2022-12-11T05:43:49.978Z,65.35
2022-12-11T05:46:21.049Z,65.18
2022-12-11T05:48:55.115Z,65.31
2022-12-11T05:51:25.057Z,66.36
2022-12-11T05:53:54.954Z,66.57
2022-12-11T05:56:27.203Z,65.34
2022-12-11T05:58:56.728Z,66.36
2022-12-11T06:01:27.676Z,65.94
2022-12-11T06:03:57.476Z,66.66
2022-12-11T06:06:28.289Z,66.39
2022-12-11T06:08:58.888Z,67.47
2022-12-11T06:11:29.875Z,68.57
2022-12-11T06:13:58.303Z,68.65
2022-12-11T06:16:27.100Z,69.04
2022-12-11T06:18:58.261Z,69.19
2022-12-11T06:21:31.297Z,69.57
2022-12-11T06:24:02.402Z,69.69
2022-12-11T06:26:31.931Z,70.01
2022-12-11T06:29:00.338Z,70.47
2022-12-11T06:31:28.918Z,70.67
2022-12-11T06:33:57.061Z,68.88
2022-12-11T06:36:27.072Z,69.78
2022-12-11T06:38:56.543Z,68.91
2022-12-11T06:41:24.647Z,69.09
2022-12-11T06:43:52.757Z,69.82
2022-12-11T06:46:21.840Z,70.03
2022-12-11T06:48:50.660Z,69.78
2022-12-11T06:51:21.740Z,69.09
2022-12-11T06:53:55.606Z,69.49
2022-12-11T06:56:25.261Z,69.41
2022-12-11T06:58:53.947Z,68.96
2022-12-11T07:01:24.814Z,69.59
2022-12-11T07:03:54.825Z,69.17
2022-12-11T07:06:23.803Z,68.61
2022-12-11T07:08:53.316Z,68.71
2022-12-11T07:11:22.327Z,69.75
2022-12-11T07:13:50.833Z,70.90
2022-12-11T07:16:20.220Z,70.60
2022-12-11T07:18:50.925Z,68.37
2022-12-11T07:21:21.430Z,67.86
2022-12-11T07:23:51.037Z,68.01
2022-12-11T07:26:23.068Z,69.23
2022-12-11T07:28:51.887Z,70.04
2022-12-11T07:31:24.901Z,69.01
2022-12-11T07:33:55.925Z,68.67
2022-12-11T07:36:24.994Z,69.64
2022-12-11T07:38:55.097Z,70.08
2022-12-11T07:41:25.325Z,70.50
2022-12-11T07:43:53.488Z,70.88
2022-12-11T07:46:24.770Z,69.36
2022-12-11T07:48:52.947Z,68.59
2022-12-11T07:51:26.358Z,69.08
2022-12-11T07:53:57.869Z,69.81
2022-12-11T07:56:28.877Z,70.18
2022-12-11T07:59:00.025Z,68.71
2022-12-11T08:01:31.037Z,68.41
2022-12-11T08:03:59.499Z,68.33
2022-12-11T08:06:30.978Z,68.47
2022-12-11T08:09:01.632Z,68.17
2022-12-11T08:11:31.387Z,68.82
2022-12-11T08:14:00.194Z,69.25
2022-12-11T08:16:29.249Z,69.48
2022-12-11T08:18:57.428Z,69.63
2022-12-11T08:21:28.899Z,69.11
2022-12-11T08:23:57.323Z,68.56
2022-12-11T08:26:31.319Z,68.24
2022-12-11T08:29:01.747Z,68.36
2022-12-11T08:31:30.803Z,68.47
2022-12-11T08:33:59.665Z,68.46
2022-12-11T08:36:27.888Z,67.46
2022-12-11T08:38:57.169Z,65.32
2022-12-11T08:41:28.387Z,66.15
2022-12-11T08:44:00.398Z,65.07
2022-12-11T08:46:31.652Z,65.16
2022-12-11T08:49:00.570Z,64.71
2022-12-11T08:51:32.485Z,63.84
2022-12-11T08:54:02.543Z,63.24
2022-12-11T08:56:31.338Z,64.74
2022-12-11T08:59:04.098Z,65.26
2022-12-11T09:01:32.705Z,65.25
2022-12-11T09:04:00.881Z,63.72
2022-12-11T09:06:31.651Z,63.84
2022-12-11T09:09:02.360Z,63.91
2022-12-11T09:11:37.406Z,65.04
2022-12-11T09:14:08.421Z,65.86
2022-12-11T09:16:40.216Z,64.54
2022-12-11T09:19:13.049Z,64.51
2022-12-11T09:21:42.062Z,65.15
2022-12-11T09:24:13.276Z,63.85
2022-12-11T09:26:42.266Z,62.68
2022-12-11T09:29:13.673Z,63.31
2022-12-11T09:31:43.199Z,63.92
2022-12-11T09:34:14.474Z,64.00
2022-12-11T09:36:45.125Z,63.65
2022-12-11T09:39:16.721Z,62.84
2022-12-11T09:41:56.556Z,62.65
2022-12-11T09:44:40.961Z,63.12
2022-12-11T09:47:25.823Z,62.00
2022-12-11T09:50:06.745Z,62.40
2022-12-11T09:52:41.377Z,63.05
2022-12-11T09:55:17.261Z,62.28
2022-12-11T09:57:57.925Z,61.95
2022-12-11T10:00:38.382Z,62.04
2022-12-11T10:03:30.227Z,62.28
2022-12-11T10:06:13.446Z,62.34
2022-12-11T10:08:54.647Z,63.17
2022-12-11T10:11:43.206Z,63.21
2022-12-11T10:14:23.477Z,62.06
2022-12-11T10:16:58.613Z,62.17
2022-12-11T10:19:31.377Z,62.43
2022-12-11T10:22:02.089Z,63.39
2022-12-11T10:27:33.350Z,64.10
2022-12-11T10:30:15.889Z,63.95
2022-12-11T10:32:54.770Z,64.44
2022-12-11T10:35:36.439Z,64.17
2022-12-11T10:38:16.728Z,64.29
2022-12-11T10:40:48.079Z,65.02
2022-12-11T10:43:16.805Z,64.36
2022-12-11T10:45:53.771Z,65.55
2022-12-11T10:48:23.597Z,64.50
2022-12-11T10:51:03.505Z,64.97
2022-12-11T10:53:34.418Z,65.32
2022-12-11T10:56:04.026Z,65.27
2022-12-11T10:58:34.452Z,63.91
2022-12-11T11:01:17.071Z,64.13
2022-12-11T11:04:00.984Z,64.60
2022-12-11T11:06:29.511Z,63.94
2022-12-11T11:09:00.267Z,64.22
2022-12-11T11:11:34.304Z,64.55
2022-12-11T11:14:15.738Z,63.52
2022-12-11T11:16:47.350Z,63.66
2022-12-11T11:19:30.401Z,63.27
2022-12-11T11:22:02.729Z,63.16
2022-12-11T11:24:37.829Z,63.25
2022-12-11T11:27:20.220Z,62.61
2022-12-11T11:29:52.971Z,63.56
2022-12-11T11:32:27.811Z,63.17
2022-12-11T11:35:17.888Z,63.31
2022-12-11T11:37:55.741Z,64.46
2022-12-11T11:40:30.341Z,63.42
2022-12-11T11:43:15.219Z,64.00
2022-12-11T11:45:52.740Z,64.53
2022-12-11T11:48:39.546Z,64.83
2022-12-11T11:51:20.377Z,64.34
2022-12-11T11:53:52.405Z,64.07
2022-12-11T11:56:27.921Z,64.24
2022-12-11T11:59:08.416Z,62.61
2022-12-11T12:01:36.565Z,63.60
2022-12-11T12:04:06.093Z,64.08
2022-12-11T12:07:03.461Z,63.75
2022-12-11T12:09:46.317Z,63.95
2022-12-11T12:12:31.046Z,63.38
2022-12-11T12:15:29.534Z,64.09
2022-12-11T12:18:07.355Z,64.67
2022-12-11T12:20:48.014Z,64.96
2022-12-11T12:23:41.118Z,65.79
2022-12-11T12:26:18.791Z,66.61
2022-12-11T12:29:01.418Z,66.14
2022-12-11T12:31:54.614Z,66.26
2022-12-11T12:34:38.711Z,66.89
2022-12-11T12:37:18.317Z,65.49
2022-12-11T12:40:02.413Z,66.55
2022-12-11T12:42:38.670Z,67.55
2022-12-11T12:45:24.014Z,68.08
2022-12-11T12:47:53.773Z,68.63
2022-12-11T12:50:26.049Z,67.85
2022-12-11T12:52:56.323Z,67.39
2022-12-11T12:55:28.940Z,67.47
2022-12-11T12:58:01.147Z,68.22
2022-12-11T13:00:36.023Z,68.31
2022-12-11T13:03:17.092Z,68.58
2022-12-11T13:05:56.548Z,68.29
2022-12-11T13:08:26.995Z,68.47
2022-12-11T13:11:06.118Z,68.33
2022-12-11T13:13:39.822Z,67.90
2022-12-11T13:16:26.063Z,67.77
2022-12-11T13:18:55.218Z,68.27
2022-12-11T13:21:33.713Z,67.42
2022-12-11T13:24:27.170Z,67.61
2022-12-11T13:26:57.428Z,67.49
2022-12-11T13:29:37.827Z,68.19
2022-12-11T13:32:24.407Z,68.75
2022-12-11T13:34:57.698Z,68.76
2022-12-11T13:37:31.791Z,68.94
2022-12-11T13:40:01.091Z,69.26
2022-12-11T13:42:37.015Z,68.62
2022-12-11T13:45:06.592Z,68.71
2022-12-11T13:47:37.508Z,68.36
2022-12-11T13:50:17.598Z,67.95
2022-12-11T13:52:55.256Z,68.52
2022-12-11T13:55:27.382Z,68.92
2022-12-11T13:57:57.420Z,68.86
2022-12-11T14:00:30.075Z,69.53
2022-12-11T14:03:02.960Z,68.92
2022-12-11T14:05:31.370Z,68.40
2022-12-11T14:08:07.266Z,68.31
2022-12-11T14:10:35.489Z,69.82
2022-12-11T14:13:17.702Z,70.41
2022-12-11T14:15:47.301Z,70.68
2022-12-11T14:18:22.065Z,70.40
2022-12-11T14:20:57.082Z,70.10
2022-12-11T14:23:27.767Z,69.76
2022-12-11T14:25:58.651Z,70.15
2022-12-11T14:28:30.809Z,70.55
2022-12-11T14:31:03.214Z,70.47
2022-12-11T14:33:38.948Z,70.97
2022-12-11T14:36:09.312Z,70.92
2022-12-11T14:38:44.788Z,71.36
2022-12-11T14:41:20.556Z,71.44
2022-12-11T14:43:54.085Z,71.39
2022-12-11T14:46:29.939Z,71.43
2022-12-11T14:49:07.574Z,71.50
2022-12-11T14:51:41.675Z,71.38
2022-12-11T14:54:28.746Z,72.12
2022-12-11T14:56:58.375Z,72.11
2022-12-11T14:59:32.470Z,72.12
2022-12-11T15:02:03.438Z,72.29
2022-12-11T15:04:34.422Z,73.03
2022-12-11T15:07:02.468Z,73.13
2022-12-11T15:09:40.583Z,73.57
2022-12-11T15:12:16.394Z,73.81
2022-12-11T15:14:52.547Z,74.38
2022-12-11T15:17:21.696Z,74.45
2022-12-11T15:19:53.906Z,74.07
2022-12-11T15:22:26.080Z,72.96
2022-12-11T15:24:55.851Z,73.57
2022-12-11T15:27:32.960Z,73.89
2022-12-11T15:30:03.171Z,73.96
2022-12-11T15:32:31.789Z,74.56
2022-12-11T15:35:01.142Z,74.45
2022-12-11T15:37:32.554Z,73.14
2022-12-11T15:40:04.330Z,72.59
2022-12-11T15:42:36.251Z,73.13
2022-12-11T15:45:09.052Z,73.81
2022-12-11T15:47:37.248Z,74.40
2022-12-11T15:50:18.098Z,74.74
2022-12-11T15:52:47.289Z,74.51
2022-12-11T15:55:16.071Z,74.45
2022-12-11T15:57:48.757Z,74.61
2022-12-11T16:00:20.482Z,73.95
2022-12-11T16:02:49.132Z,74.09
2022-12-11T16:05:17.692Z,74.24
2022-12-11T16:07:45.893Z,74.50
2022-12-11T16:10:18.329Z,74.80
2022-12-11T16:12:46.841Z,75.34
2022-12-11T16:15:23.425Z,74.37
2022-12-11T16:18:00.589Z,73.64
2022-12-11T16:20:28.660Z,73.82
2022-12-11T16:22:56.713Z,74.24
2022-12-11T16:25:25.713Z,74.76
2022-12-11T16:27:56.894Z,74.80
2022-12-11T16:30:29.057Z,74.78
2022-12-11T16:32:57.273Z,74.52
2022-12-11T16:35:25.330Z,75.09
2022-12-11T16:37:54.913Z,74.63
2022-12-11T16:40:24.417Z,74.86
2022-12-11T16:42:52.779Z,74.21
2022-12-11T16:45:25.200Z,74.45
2022-12-11T16:47:55.365Z,75.24
2022-12-11T16:50:25.271Z,75.77
2022-12-11T16:52:54.435Z,76.35
2022-12-11T16:55:22.531Z,76.18
2022-12-11T16:57:50.705Z,76.49
2022-12-11T17:00:20.413Z,76.93
2022-12-11T17:02:48.531Z,76.97
2022-12-11T17:05:18.248Z,76.74
2022-12-11T17:07:46.370Z,76.83
2022-12-11T17:10:14.484Z,77.02
2022-12-11T17:12:42.546Z,76.81
2022-12-11T17:15:11.644Z,76.63
2022-12-11T17:17:39.950Z,76.31
2022-12-11T17:20:10.208Z,76.49
2022-12-11T17:22:40.309Z,76.05
2022-12-11T17:25:09.760Z,75.89
2022-12-11T17:27:37.936Z,75.84
2022-12-11T17:30:07.356Z,76.62
2022-12-11T17:32:35.410Z,76.50
2022-12-11T17:35:03.691Z,76.74
2022-12-11T17:37:41.922Z,76.51
2022-12-11T17:40:11.255Z,76.33
2022-12-11T17:42:39.328Z,76.46
2022-12-11T17:45:09.308Z,76.10
2022-12-11T17:47:37.545Z,76.30
2022-12-11T17:50:06.851Z,76.56
2022-12-11T17:52:38.375Z,76.63
2022-12-11T17:55:11.933Z,75.76
2022-12-11T17:57:40.305Z,75.17
2022-12-11T18:00:10.619Z,75.26
2022-12-11T18:02:38.780Z,75.72
2022-12-11T18:05:07.541Z,76.18
2022-12-11T18:07:38.211Z,76.32
2022-12-11T18:10:07.461Z,75.85
2022-12-11T18:12:37.447Z,75.48
2022-12-11T18:15:07.080Z,75.68
2022-12-11T18:17:35.359Z,76.24
2022-12-11T18:20:04.241Z,76.51
2022-12-11T18:22:32.357Z,76.46
2022-12-11T18:25:03.912Z,76.10
2022-12-11T18:27:37.964Z,76.05
2022-12-11T18:30:07.803Z,76.56
2022-12-11T18:32:35.951Z,76.92
2022-12-11T18:35:04.570Z,77.27
2022-12-11T18:37:32.770Z,76.79
2022-12-11T18:40:00.857Z,76.77
2022-12-11T18:42:33.750Z,76.67
2022-12-11T18:45:04.035Z,76.37
2022-12-11T18:47:32.090Z,76.10
2022-12-11T18:50:05.591Z,75.56
2022-12-11T18:52:36.242Z,75.65
2022-12-11T18:55:04.845Z,76.42
2022-12-11T18:57:33.234Z,76.83
2022-12-11T19:00:07.342Z,76.91
2022-12-11T19:02:36.286Z,76.83
2022-12-11T19:05:05.242Z,77.39
2022-12-11T19:07:33.368Z,76.81
2022-12-11T19:10:01.483Z,76.94
2022-12-11T19:12:29.524Z,77.04
2022-12-11T19:14:57.637Z,76.53
2022-12-11T19:17:27.084Z,76.74
2022-12-11T19:19:55.192Z,76.88
2022-12-11T19:22:23.292Z,76.44
2022-12-11T19:24:51.396Z,77.01
2022-12-11T19:27:19.467Z,77.23
2022-12-11T19:29:47.612Z,77.42
2022-12-11T19:32:15.669Z,77.74
2022-12-11T19:34:45.140Z,77.83
2022-12-11T19:37:13.175Z,77.79
2022-12-11T19:39:41.355Z,78.01
2022-12-11T19:42:09.426Z,78.25
2022-12-11T19:44:37.672Z,78.01
2022-12-11T19:47:06.260Z,77.51
2022-12-11T19:49:34.413Z,77.32
2022-12-11T19:52:04.501Z,77.37
2022-12-11T19:54:33.881Z,77.73
2022-12-11T19:57:05.195Z,77.78
2022-12-11T19:59:33.244Z,78.38
2022-12-11T20:02:01.455Z,78.60
2022-12-11T20:04:29.717Z,78.22
2022-12-11T20:06:57.778Z,77.53
2022-12-11T20:09:27.405Z,77.27
2022-12-11T20:11:55.503Z,77.83
2022-12-11T20:14:27.052Z,78.54
2022-12-11T20:17:13.856Z,78.82
2022-12-11T20:19:43.183Z,79.01
2022-12-11T20:22:12.050Z,78.92
2022-12-11T20:24:41.515Z,79.03
2022-12-11T20:27:10.042Z,79.07
2022-12-11T20:29:38.821Z,78.87
2022-12-11T20:32:07.307Z,79.16
2022-12-11T20:34:35.424Z,79.52
2022-12-11T20:37:03.522Z,79.66
2022-12-11T20:39:32.203Z,79.02
2022-12-11T20:42:04.713Z,78.70
2022-12-11T20:44:33.128Z,78.64
2022-12-11T20:47:01.308Z,78.82
2022-12-11T20:49:29.319Z,79.34
2022-12-11T20:51:57.421Z,79.46
2022-12-11T20:54:25.540Z,79.09
2022-12-11T20:56:53.751Z,78.76
2022-12-11T20:59:25.957Z,78.49
2022-12-11T21:01:54.136Z,78.87
2022-12-11T21:04:22.318Z,79.51
2022-12-11T21:06:55.329Z,79.48
2022-12-11T21:09:25.995Z,79.44
2022-12-11T21:11:54.944Z,79.21
2022-12-11T21:14:24.422Z,79.34
2022-12-11T21:16:52.637Z,79.51
2022-12-11T21:19:23.596Z,79.56
2022-12-11T21:21:51.758Z,79.53
2022-12-11T21:24:23.233Z,79.26
2022-12-11T21:26:51.680Z,79.35
2022-12-11T21:29:19.792Z,79.42
2022-12-11T21:31:51.208Z,79.13
2022-12-11T21:34:25.281Z,79.05
2022-12-11T21:36:56.508Z,79.21
2022-12-11T21:39:25.805Z,79.73
2022-12-11T21:41:53.946Z,79.45
2022-12-11T21:47:12.021Z,79.84
2022-12-11T21:49:40.111Z,79.46
2022-12-11T21:52:09.208Z,78.74
2022-12-11T21:54:37.625Z,79.17
2022-12-11T21:57:06.011Z,79.66
2022-12-11T21:59:34.566Z,79.68
2022-12-11T22:02:02.750Z,79.47
2022-12-11T22:04:32.360Z,79.95
2022-12-11T22:07:00.429Z,79.55
2022-12-11T22:09:28.536Z,79.27
2022-12-11T22:11:58.568Z,79.34
2022-12-11T22:14:27.393Z,79.35
2022-12-11T22:16:55.567Z,79.45
2022-12-11T22:19:26.640Z,79.30
2022-12-11T22:22:00.201Z,79.29
2022-12-11T22:24:28.278Z,79.51
2022-12-11T22:26:56.375Z,79.56
2022-12-11T22:29:24.505Z,79.56
2022-12-11T22:31:52.811Z,78.88
2022-12-11T22:34:21.017Z,78.42
2022-12-11T22:36:49.224Z,78.72
2022-12-11T22:39:18.708Z,78.52
2022-12-11T22:41:46.801Z,78.77
2022-12-11T22:44:19.587Z,79.09
2022-12-11T22:46:50.198Z,78.97
2022-12-11T22:49:19.239Z,78.44
2022-12-11T22:51:47.587Z,78.43
2022-12-11T22:54:15.774Z,78.67
2022-12-11T22:56:45.227Z,78.40
2022-12-11T22:59:13.392Z,78.38
2022-12-11T23:01:41.655Z,78.63
2022-12-11T23:04:09.778Z,77.65
2022-12-11T23:06:38.516Z,77.30
2022-12-11T23:09:07.174Z,77.53
2022-12-11T23:11:38.647Z,77.83
2022-12-11T23:14:17.247Z,77.63
2022-12-11T23:16:46.188Z,77.42
2022-12-11T23:19:16.306Z,75.98
2022-12-11T23:21:46.769Z,75.77
2022-12-11T23:24:14.923Z,77.03
2022-12-11T23:26:43.480Z,76.42
2022-12-11T23:29:12.924Z,77.18
2022-12-11T23:31:41.097Z,77.78
2022-12-11T23:34:09.209Z,78.12
2022-12-11T23:36:37.555Z,77.95
2022-12-11T23:39:07.348Z,77.52
2022-12-11T23:41:35.496Z,77.60
2022-12-11T23:44:03.777Z,78.16
2022-12-11T23:46:34.363Z,78.22
2022-12-11T23:49:02.636Z,78.54
2022-12-11T23:51:30.985Z,78.57
2022-12-11T23:53:59.067Z,79.17
2022-12-11T23:56:30.363Z,78.80
2022-12-11T23:58:58.848Z,78.62
